createdAt,value
2022-10-02T00:02:26.015Z,4.75
2022-10-02T00:05:10.854Z,4.15
2022-10-02T00:07:52.101Z,4.00
2022-10-02T00:10:23.477Z,4.22
2022-10-02T00:12:53.544Z,4.65
2022-10-02T00:15:24.298Z,5.43
2022-10-02T00:17:54.005Z,5.13
2022-10-02T00:20:25.510Z,4.53
2022-10-02T00:22:57.721Z,4.90
2022-10-02T00:25:49.812Z,5.00
2022-10-02T00:28:25.327Z,5.45
2022-10-02T00:31:07.906Z,6.13
2022-10-02T00:33:58.889Z,6.93
2022-10-02T00:36:46.626Z,6.03
2022-10-02T00:39:38.836Z,6.50
2022-10-02T00:42:36.294Z,6.22
2022-10-02T00:45:12.383Z,7.03
2022-10-02T00:48:08.373Z,5.93
2022-10-02T00:50:57.737Z,6.35
2022-10-02T00:53:38.494Z,7.30
2022-10-02T00:56:29.586Z,7.40
2022-10-02T00:59:33.506Z,6.63
2022-10-02T01:02:12.679Z,7.60
2022-10-02T01:04:40.002Z,7.68
2022-10-02T01:07:12.268Z,6.30
2022-10-02T01:09:39.644Z,7.53
2022-10-02T01:12:07.227Z,7.60
2022-10-02T01:14:35.689Z,7.65
2022-10-02T01:17:03.102Z,7.68
2022-10-02T01:19:39.562Z,8.27
2022-10-02T01:22:29.595Z,8.43
2022-10-02T01:24:57.543Z,7.53
2022-10-02T01:27:25.622Z,8.80
2022-10-02T01:30:00.385Z,8.75
2022-10-02T01:32:29.448Z,7.55
2022-10-02T01:34:57.196Z,9.77
2022-10-02T01:37:28.048Z,8.25
2022-10-02T01:39:57.163Z,9.02
2022-10-02T01:42:23.951Z,7.97
2022-10-02T01:44:50.870Z,8.68
2022-10-02T01:47:50.127Z,8.82
2022-10-02T01:50:38.450Z,8.05
2022-10-02T01:53:20.181Z,8.73
2022-10-02T01:56:23.241Z,9.55
2022-10-02T01:58:59.971Z,8.40
2022-10-02T02:01:27.977Z,9.27
2022-10-02T02:04:01.031Z,7.78
2022-10-02T02:11:31.904Z,9.73
2022-10-02T02:14:09.939Z,9.70
2022-10-02T02:16:50.311Z,8.50
2022-10-02T02:19:29.670Z,8.77
2022-10-02T02:22:04.468Z,7.93
2022-10-02T02:24:41.433Z,9.35
2022-10-02T02:27:10.176Z,8.38
2022-10-02T02:29:38.139Z,8.18
2022-10-02T02:32:07.952Z,7.68
2022-10-02T02:34:49.130Z,10.63
2022-10-02T02:37:19.274Z,8.70
2022-10-02T02:40:10.804Z,9.18
2022-10-02T02:42:45.522Z,9.35
2022-10-02T02:45:21.578Z,9.18
2022-10-02T02:47:51.932Z,9.20
2022-10-02T02:50:31.177Z,9.32
2022-10-02T02:53:12.974Z,9.82
2022-10-02T02:55:56.317Z,9.18
2022-10-02T02:58:27.995Z,10.38
2022-10-02T03:00:55.754Z,9.38
2022-10-02T03:03:22.627Z,10.10
2022-10-02T03:05:53.708Z,9.65
2022-10-02T03:08:38.529Z,8.73
2022-10-02T03:11:10.043Z,10.07
2022-10-02T03:13:57.744Z,9.73
2022-10-02T03:16:55.854Z,10.40
2022-10-02T03:19:37.978Z,10.88
2022-10-02T03:22:31.496Z,11.07
2022-10-02T03:28:53.797Z,13.38
2022-10-02T03:31:18.832Z,11.32
2022-10-02T03:33:46.702Z,9.63
2022-10-02T03:36:16.412Z,10.73
2022-10-02T03:38:43.473Z,11.48
2022-10-02T03:41:10.471Z,10.48
2022-10-02T03:43:38.586Z,10.82
2022-10-02T03:46:05.577Z,10.70
2022-10-02T03:48:32.576Z,10.50
2022-10-02T03:50:59.523Z,10.15
2022-10-02T03:53:31.230Z,9.32
2022-10-02T03:56:01.076Z,10.82
2022-10-02T03:58:28.078Z,10.75
2022-10-02T04:01:34.096Z,10.52
2022-10-02T04:04:14.267Z,10.48
2022-10-02T04:07:04.846Z,10.32
2022-10-02T04:09:49.002Z,10.43
2022-10-02T04:12:21.422Z,10.48
2022-10-02T04:15:09.505Z,10.68
2022-10-02T04:17:44.979Z,10.13
2022-10-02T04:20:26.241Z,11.35
2022-10-02T04:22:56.005Z,10.45
2022-10-02T04:25:29.286Z,11.20
2022-10-02T04:28:06.365Z,10.07
2022-10-02T04:30:33.328Z,10.02
2022-10-02T04:33:17.674Z,9.57
2022-10-02T04:35:57.692Z,9.77
2022-10-02T04:38:43.744Z,9.82
2022-10-02T04:41:37.222Z,10.00
2022-10-02T04:47:10.576Z,10.55
2022-10-02T04:50:01.577Z,9.40
2022-10-02T04:52:39.928Z,11.75
2022-10-02T04:55:25.465Z,9.48
2022-10-02T04:58:00.869Z,8.65
2022-10-02T05:00:36.499Z,10.13
2022-10-02T05:03:16.040Z,10.05
2022-10-02T05:06:04.320Z,10.05
2022-10-02T05:08:40.583Z,9.98
2022-10-02T05:11:45.172Z,10.02
2022-10-02T05:14:20.655Z,9.57
2022-10-02T05:16:47.502Z,10.05
2022-10-02T05:19:32.369Z,10.00
2022-10-02T05:22:16.825Z,9.20
2022-10-02T05:24:49.704Z,8.93
2022-10-02T05:27:39.272Z,10.35
2022-10-02T05:30:08.576Z,10.10
2022-10-02T05:32:53.242Z,9.70
2022-10-02T05:35:42.392Z,9.18
2022-10-02T05:38:57.615Z,10.13
2022-10-02T05:41:37.022Z,7.97
2022-10-02T05:44:29.070Z,9.15
2022-10-02T05:47:19.605Z,7.78
2022-10-02T05:50:00.195Z,7.82
2022-10-02T05:53:02.067Z,6.47
2022-10-02T05:55:31.967Z,6.78
2022-10-02T05:58:07.518Z,6.50
2022-10-02T06:00:46.479Z,6.43
2022-10-02T06:03:31.925Z,5.97
2022-10-02T06:06:04.768Z,5.60
2022-10-02T06:08:36.828Z,5.40
2022-10-02T06:11:28.588Z,4.55
2022-10-02T06:14:01.079Z,4.03
2022-10-02T06:16:37.095Z,4.90
2022-10-02T06:19:18.559Z,3.95
2022-10-02T06:21:54.027Z,4.05
2022-10-02T06:24:25.810Z,3.63
2022-10-02T06:27:16.877Z,3.50
2022-10-02T06:29:49.575Z,3.00
2022-10-02T06:32:30.571Z,3.25
2022-10-02T06:34:57.413Z,3.00
2022-10-02T06:37:52.312Z,3.10
2022-10-02T06:40:42.801Z,2.78
2022-10-02T06:43:24.643Z,2.97
2022-10-02T06:46:00.768Z,3.00
2022-10-02T06:48:48.375Z,2.42
2022-10-02T06:51:18.207Z,2.97
2022-10-02T06:54:19.230Z,2.90
2022-10-02T06:56:58.175Z,2.15
2022-10-02T06:59:46.528Z,2.55
2022-10-02T07:02:21.269Z,2.50
2022-10-02T07:05:00.516Z,2.25
2022-10-02T07:07:37.309Z,2.53
2022-10-02T07:10:15.422Z,2.42
2022-10-02T07:13:08.573Z,2.17
2022-10-02T07:16:30.022Z,2.42
2022-10-02T07:19:18.501Z,2.30
2022-10-02T07:22:39.921Z,2.38
2022-10-02T07:25:27.884Z,2.42
2022-10-02T07:28:19.018Z,2.47
2022-10-02T07:30:52.706Z,3.08
2022-10-02T07:33:55.444Z,5.32
2022-10-02T07:36:56.893Z,2.78
2022-10-02T07:39:51.100Z,3.30
2022-10-02T07:42:17.932Z,3.33
2022-10-02T07:44:47.975Z,3.97
2022-10-02T07:47:14.979Z,3.08
2022-10-02T07:49:57.102Z,2.90
2022-10-02T07:52:30.789Z,3.05
2022-10-02T07:55:08.843Z,3.97
2022-10-02T07:58:06.011Z,3.42
2022-10-02T08:00:40.330Z,4.25
2022-10-02T08:03:14.189Z,3.85
2022-10-02T08:05:47.489Z,4.78
2022-10-02T08:08:31.548Z,4.97
2022-10-02T08:11:08.565Z,4.70
2022-10-02T08:13:44.927Z,4.63
2022-10-02T08:16:13.539Z,4.78
2022-10-02T08:18:57.336Z,5.60
2022-10-02T08:21:24.862Z,5.55
2022-10-02T08:24:19.369Z,4.93
2022-10-02T08:26:58.446Z,5.47
2022-10-02T08:29:40.065Z,5.07
2022-10-02T08:32:16.484Z,5.82
2022-10-02T08:34:47.250Z,6.50
2022-10-02T08:37:25.718Z,7.40
2022-10-02T08:40:29.435Z,6.78
2022-10-02T08:45:53.912Z,6.65
2022-10-02T08:48:55.074Z,7.68
2022-10-02T08:51:33.837Z,7.13
2022-10-02T08:54:38.411Z,7.55
2022-10-02T08:57:34.426Z,7.10
2022-10-02T09:00:20.183Z,6.38
2022-10-02T09:03:30.181Z,6.95
2022-10-02T09:06:06.190Z,7.55
2022-10-02T09:08:56.197Z,8.27
2022-10-02T09:12:00.499Z,7.25
2022-10-02T09:14:49.186Z,7.75
2022-10-02T09:17:45.409Z,7.38
2022-10-02T09:20:36.823Z,7.22
2022-10-02T09:23:12.724Z,7.53
2022-10-02T09:25:54.198Z,7.43
2022-10-02T09:28:42.462Z,7.53
2022-10-02T09:31:27.283Z,6.18
2022-10-02T09:34:52.453Z,7.05
2022-10-02T09:38:04.263Z,6.38
2022-10-02T09:41:05.690Z,6.32
2022-10-02T09:43:55.086Z,7.28
2022-10-02T09:46:51.215Z,6.18
2022-10-02T09:49:45.479Z,6.03
2022-10-02T09:53:06.172Z,5.78
2022-10-02T09:55:51.659Z,6.43
2022-10-02T09:58:37.387Z,6.20
2022-10-02T10:01:23.285Z,5.25
2022-10-02T10:04:33.878Z,5.50
2022-10-02T10:07:26.138Z,5.55
2022-10-02T10:09:58.653Z,5.63
2022-10-02T10:13:06.559Z,5.55
2022-10-02T10:16:11.713Z,5.82
2022-10-02T10:19:05.816Z,5.28
2022-10-02T10:21:50.682Z,4.90
2022-10-02T10:24:30.339Z,6.10
2022-10-02T10:27:15.573Z,6.15
2022-10-02T10:30:06.878Z,6.78
2022-10-02T10:33:03.086Z,6.47
2022-10-02T10:35:36.830Z,5.18
2022-10-02T10:38:41.016Z,6.55
2022-10-02T10:41:38.743Z,6.50
2022-10-02T10:44:12.064Z,6.00
2022-10-02T10:49:41.457Z,5.22
2022-10-02T10:52:21.409Z,6.38
2022-10-02T10:55:07.543Z,5.90
2022-10-02T10:58:04.793Z,6.70
2022-10-02T11:00:56.277Z,5.35
2022-10-02T11:04:06.944Z,7.60
2022-10-02T11:06:56.381Z,7.25
2022-10-02T11:09:45.080Z,6.53
2022-10-02T11:12:41.258Z,5.97
2022-10-02T11:15:34.031Z,5.20
2022-10-02T11:18:14.867Z,4.63
2022-10-02T11:21:00.199Z,5.22
2022-10-02T11:24:06.302Z,5.35
2022-10-02T11:26:48.988Z,4.40
2022-10-02T11:29:43.282Z,5.10
2022-10-02T11:32:31.754Z,5.97
2022-10-02T11:35:21.062Z,5.47
2022-10-02T11:38:03.039Z,5.65
2022-10-02T11:40:42.960Z,6.50
2022-10-02T11:43:34.748Z,6.95
2022-10-02T11:46:13.273Z,6.85
2022-10-02T11:49:27.007Z,7.00
2022-10-02T11:52:14.872Z,6.75
2022-10-02T11:55:22.250Z,7.18
2022-10-02T11:58:07.108Z,6.20
2022-10-02T12:00:47.545Z,6.00
2022-10-02T12:03:25.712Z,6.85
2022-10-02T12:06:22.586Z,6.00
2022-10-02T12:09:11.012Z,5.97
2022-10-02T12:11:50.310Z,6.38
2022-10-02T12:14:34.747Z,6.40
2022-10-02T12:17:07.408Z,5.25
2022-10-02T12:20:18.212Z,5.25
2022-10-02T12:23:24.134Z,6.05
2022-10-02T12:26:23.738Z,6.60
2022-10-02T12:29:19.721Z,6.13
2022-10-02T12:32:12.815Z,5.20
2022-10-02T12:35:12.270Z,6.22
2022-10-02T12:38:02.451Z,5.97
2022-10-02T12:40:38.453Z,5.55
2022-10-02T12:43:40.760Z,5.53
2022-10-02T12:46:13.659Z,4.78
2022-10-02T12:51:38.438Z,4.10
2022-10-02T12:54:27.452Z,3.85
2022-10-02T12:57:38.724Z,3.85
2022-10-02T13:00:16.467Z,4.32
2022-10-02T13:03:25.961Z,4.03
2022-10-02T13:05:58.434Z,4.95
2022-10-02T13:08:31.747Z,4.88
2022-10-02T13:11:30.335Z,4.25
2022-10-02T13:14:20.300Z,4.50
2022-10-02T13:17:05.194Z,5.35
2022-10-02T13:19:56.225Z,4.32
2022-10-02T13:22:47.038Z,4.07
2022-10-02T13:25:35.768Z,3.70
2022-10-02T13:28:38.113Z,5.50
2022-10-02T13:31:20.471Z,4.82
2022-10-02T13:34:08.991Z,4.33
2022-10-02T13:36:44.622Z,4.65
2022-10-02T13:39:36.071Z,4.65
2022-10-02T13:42:09.147Z,3.88
2022-10-02T13:45:03.216Z,3.67
2022-10-02T13:47:44.198Z,3.75
2022-10-02T13:50:46.622Z,3.75
2022-10-02T13:53:31.838Z,3.60
2022-10-02T13:56:43.517Z,3.17
2022-10-02T13:59:36.658Z,3.67
2022-10-02T14:02:31.046Z,3.25
2022-10-02T14:05:23.237Z,2.95
2022-10-02T14:08:17.534Z,3.67
2022-10-02T14:11:12.031Z,2.92
2022-10-02T14:14:03.182Z,2.60
2022-10-02T14:16:53.672Z,3.70
2022-10-02T14:19:46.445Z,3.40
2022-10-02T14:22:22.340Z,3.85
2022-10-02T14:25:02.627Z,2.90
2022-10-02T14:28:06.978Z,3.47
2022-10-02T14:30:42.892Z,3.17
2022-10-02T14:33:17.042Z,3.08
2022-10-02T14:36:01.271Z,2.83
2022-10-02T14:38:36.918Z,3.85
2022-10-02T14:41:46.030Z,3.08
2022-10-02T14:44:21.254Z,3.60
2022-10-02T14:47:12.076Z,3.15
2022-10-02T14:49:42.893Z,3.10
2022-10-02T14:52:38.946Z,3.33
2022-10-02T14:55:25.509Z,2.88
2022-10-02T14:58:08.069Z,3.40
2022-10-02T15:01:02.525Z,4.10
2022-10-02T15:03:38.727Z,3.17
2022-10-02T15:06:33.116Z,2.75
2022-10-02T15:09:07.020Z,3.30
2022-10-02T15:11:36.898Z,3.13
2022-10-02T15:14:09.518Z,2.78
2022-10-02T15:17:16.201Z,2.53
2022-10-02T15:20:03.751Z,2.75
2022-10-02T15:22:38.830Z,2.38
2022-10-02T15:25:24.849Z,2.42
2022-10-02T15:28:44.751Z,2.45
2022-10-02T15:31:12.125Z,2.47
2022-10-02T15:33:49.614Z,2.70
2022-10-02T15:36:46.861Z,3.08
2022-10-02T15:39:14.113Z,2.45
2022-10-02T15:41:45.800Z,2.78
2022-10-02T15:44:27.524Z,3.53
2022-10-02T15:47:30.149Z,2.70
2022-10-02T15:50:21.143Z,2.88
2022-10-02T15:53:25.027Z,2.92
2022-10-02T15:56:14.847Z,2.75
2022-10-02T15:58:41.667Z,3.20
2022-10-02T16:01:22.087Z,2.47
2022-10-02T16:03:52.417Z,2.60
2022-10-02T16:07:07.405Z,2.75
2022-10-02T16:09:51.357Z,3.00
2022-10-02T16:12:20.919Z,2.70
2022-10-02T16:15:01.072Z,2.33
2022-10-02T16:17:36.473Z,2.40
2022-10-02T16:20:15.430Z,2.92
2022-10-02T16:23:15.948Z,2.45
2022-10-02T16:26:06.687Z,3.08
2022-10-02T16:29:06.171Z,3.33
2022-10-02T16:31:51.271Z,2.95
2022-10-02T16:34:43.538Z,3.78
2022-10-02T16:37:27.289Z,3.13
2022-10-02T16:40:00.810Z,3.92
2022-10-02T16:42:40.423Z,2.33
2022-10-02T16:45:26.042Z,2.65
2022-10-02T16:48:10.098Z,2.45
2022-10-02T16:50:56.834Z,2.90
2022-10-02T16:53:40.701Z,3.20
2022-10-02T16:56:16.463Z,3.28
2022-10-02T16:58:46.390Z,2.33
2022-10-02T17:01:33.610Z,2.22
2022-10-02T17:04:15.242Z,3.20
2022-10-02T17:07:01.747Z,2.47
2022-10-02T17:09:38.444Z,3.30
2022-10-02T17:12:08.317Z,3.90
2022-10-02T17:14:44.921Z,4.38
2022-10-02T17:17:32.472Z,6.18
2022-10-02T17:20:14.721Z,5.93
2022-10-02T17:22:56.240Z,4.90
2022-10-02T17:25:56.986Z,4.85
2022-10-02T17:28:40.912Z,7.00
2022-10-02T17:31:19.817Z,5.95
2022-10-02T17:33:52.438Z,4.03
2022-10-02T17:36:31.137Z,4.93
2022-10-02T17:39:28.498Z,5.32
2022-10-02T17:42:07.252Z,4.68
2022-10-02T17:44:45.232Z,4.78
2022-10-02T17:47:50.830Z,4.32
2022-10-02T17:50:44.263Z,4.75
2022-10-02T17:56:37.396Z,4.85
2022-10-02T17:59:34.402Z,4.68
2022-10-02T18:02:07.221Z,3.95
2022-10-02T18:05:11.500Z,6.63
2022-10-02T18:07:52.079Z,4.20
2022-10-02T18:10:25.340Z,3.70
2022-10-02T18:13:21.546Z,5.15
2022-10-02T18:15:53.819Z,4.15
2022-10-02T18:18:40.817Z,4.15
2022-10-02T18:21:25.958Z,5.97
2022-10-02T18:24:32.191Z,7.38
2022-10-02T18:27:26.196Z,5.82
2022-10-02T18:30:16.829Z,6.32
2022-10-02T18:32:58.532Z,5.38
2022-10-02T18:35:51.062Z,4.47
2022-10-02T18:38:31.786Z,5.43
2022-10-02T18:41:08.863Z,5.05
2022-10-02T18:43:57.183Z,5.05
2022-10-02T18:46:49.693Z,5.40
2022-10-02T18:49:33.024Z,4.53
2022-10-02T18:54:42.145Z,6.65
2022-10-02T18:57:09.004Z,8.00
2022-10-02T18:59:41.890Z,10.05
2022-10-02T19:02:50.456Z,9.95
2022-10-02T19:05:27.527Z,9.40
2022-10-02T19:08:30.470Z,8.80
2022-10-02T19:10:57.582Z,9.60
2022-10-02T19:13:29.663Z,8.70
2022-10-02T19:16:01.338Z,7.10
2022-10-02T19:18:29.712Z,7.35
2022-10-02T19:21:12.999Z,7.75
2022-10-02T19:26:30.324Z,7.65
2022-10-02T19:29:02.567Z,7.07
2022-10-02T19:31:30.763Z,6.32
2022-10-02T19:34:03.471Z,6.72
2022-10-02T19:36:40.060Z,6.32
2022-10-02T19:39:18.083Z,7.00
2022-10-02T19:41:45.285Z,7.32
2022-10-02T19:44:25.301Z,7.07
2022-10-02T19:46:56.729Z,6.50
2022-10-02T19:49:40.163Z,6.25
2022-10-02T19:52:38.029Z,6.72
2022-10-02T19:55:17.411Z,6.55
2022-10-02T19:57:45.741Z,5.45
2022-10-02T20:00:17.793Z,6.45
2022-10-02T20:02:53.025Z,6.07
2022-10-02T20:05:23.934Z,6.10
2022-10-02T20:07:53.420Z,6.57
2022-10-02T20:10:29.862Z,6.93
2022-10-02T20:13:03.814Z,7.43
2022-10-02T20:16:14.349Z,6.88
2022-10-02T20:18:41.278Z,8.07
2022-10-02T20:21:17.162Z,7.53
2022-10-02T20:23:48.494Z,10.52
2022-10-02T20:26:20.492Z,13.82
2022-10-02T20:28:53.055Z,13.05
2022-10-02T20:31:38.510Z,12.13
2022-10-02T20:34:18.238Z,11.23
2022-10-02T20:36:54.052Z,11.88
2022-10-02T20:39:22.703Z,10.48
2022-10-02T20:42:03.656Z,10.15
2022-10-02T20:44:33.884Z,9.43
2022-10-02T20:47:25.207Z,9.27
2022-10-02T20:50:08.685Z,11.02
2022-10-02T20:53:02.567Z,12.43
2022-10-02T20:55:51.540Z,12.55
2022-10-02T20:58:41.301Z,10.88
2022-10-02T21:01:19.276Z,10.20
2022-10-02T21:04:23.693Z,10.68
2022-10-02T21:07:12.148Z,10.85
2022-10-02T21:10:00.138Z,8.98
2022-10-02T21:12:36.569Z,11.20
2022-10-02T21:15:08.890Z,12.52
2022-10-02T21:18:00.255Z,10.50
2022-10-02T21:20:53.596Z,10.60
2022-10-02T21:23:54.647Z,14.13
2022-10-02T21:26:52.002Z,14.60
2022-10-02T21:29:46.807Z,15.10
2022-10-02T21:32:34.590Z,16.63
2022-10-02T21:35:32.071Z,14.80
2022-10-02T21:38:20.182Z,15.95
2022-10-02T21:40:57.739Z,15.27
2022-10-02T21:43:50.547Z,17.67
2022-10-02T21:46:36.054Z,16.23
2022-10-02T21:49:21.313Z,19.48
2022-10-02T21:52:00.086Z,12.75
2022-10-02T21:54:27.027Z,9.38
2022-10-02T21:57:33.180Z,11.77
2022-10-02T22:00:10.489Z,11.27
2022-10-02T22:02:43.152Z,13.65
2022-10-02T22:05:57.613Z,12.90
2022-10-02T22:08:34.498Z,11.32
2022-10-02T22:11:18.135Z,11.95
2022-10-02T22:13:45.450Z,11.52
2022-10-02T22:17:02.851Z,11.20
2022-10-02T22:19:50.765Z,9.63
2022-10-02T22:22:56.176Z,12.80
2022-10-02T22:25:28.802Z,11.57
2022-10-02T22:28:17.108Z,11.23
2022-10-02T22:30:55.995Z,13.68
2022-10-02T22:33:57.124Z,14.02
2022-10-02T22:37:30.307Z,15.65
2022-10-02T22:40:31.651Z,19.05
2022-10-02T22:43:04.285Z,18.50
2022-10-02T22:45:35.196Z,15.45
2022-10-02T22:48:10.850Z,18.00
2022-10-02T22:50:50.527Z,19.05
2022-10-02T22:53:34.791Z,21.85
2022-10-02T22:56:01.788Z,21.85
2022-10-02T22:59:18.906Z,19.80
2022-10-02T23:01:57.273Z,13.70
2022-10-02T23:04:36.446Z,12.48
2022-10-02T23:07:08.646Z,13.90
2022-10-02T23:09:51.248Z,12.37
2022-10-02T23:12:27.944Z,16.77
2022-10-02T23:15:01.520Z,17.90
2022-10-02T23:17:44.057Z,19.90
2022-10-02T23:20:15.266Z,11.75
2022-10-02T23:22:50.251Z,16.33
2022-10-02T23:25:26.919Z,21.73
2022-10-02T23:28:17.967Z,22.20
2022-10-02T23:30:49.585Z,21.67
2022-10-02T23:33:26.146Z,21.73
2022-10-02T23:36:01.272Z,12.80
2022-10-02T23:38:35.664Z,9.52
2022-10-02T23:41:35.093Z,10.25
2022-10-02T23:44:07.715Z,13.60
2022-10-02T23:46:49.896Z,15.43
2022-10-02T23:49:18.780Z,15.30
2022-10-02T23:52:19.310Z,15.70
2022-10-02T23:54:55.152Z,12.57
2022-10-02T23:57:41.027Z,14.45
